Terminal Aerodrome Forecast
Issued by NWS Louisville, KY

Current Version | Previous Version | Text Only | Print | Product List | Glossary On
Versions: 1 2 3 4 5 6 7 8 9 10 11 12 13 14 15 16 17 18 19
757
FTUS43 KLMK 300520
TAFBWG
TAF
KBWG 300520Z 3006/3106 21005KT P6SM VCSH FEW060 BKN250
     FM300800 VRB03KT P6SM FEW050 SCT250
      TEMPO 3010/3014 3SM BR
     FM301600 26008KT P6SM SCT060
     FM310000 VRB05KT P6SM FEW080 SCT250=

USA.gov is the U.S. government's official web portal to all federal, state and local government web resources and services.